KBFD/BFD METAR and TAF weather

Enter ICAO airport designator
Station Type Date Time Source
KBFD METAR 2019/02/23 01:53 UTC NOAA

KBFD 230153Z AUTO 00000KT 10SM CLR M02/M07 A3035 RMK AO2 SLP303 T10221067


Station Type Date Time Source
KBFD Decoded METAR 2019/02/23 01:53 UTC NOAA

BRADFORD REGIONAL AIRPORT, PA, United States (KBFD) 41-48N 078-38W 647M
Feb 22, 2019 - 08:53 PM EST / 2019.02.23 0153 UTC
Wind: Calm:0
Visibility: 10 mile(s):0
Sky conditions: clear
Temperature: 28.0 F (-2.2 C)
Dew Point: 19.9 F (-6.7 C)
Relative Humidity: 71%
Pressure (altimeter): 30.35 in. Hg (1027 hPa)
ob: KBFD 230153Z AUTO 00000KT 10SM CLR M02/M07 A3035 RMK AO2 SLP303 T10221067
cycle: 2

Station Type Date Time Source
KBFD TAF 2019/02/22 22:57 UTC NOAA

TAF
AMD KBFD 222155Z 2222/2318 33005KT P6SM OVC250
FM231400 12005KT P6SM BKN150


Example: see airport list